Terminal Aerodrome Forecast
Issued by NWS

Home | Current Version | Previous Version | Graphics & Text | Print | Product List | Glossary On
Versions: 1 2 3 4 5 6 7 8 9 10 11 12 13 14 15 16 17 18 19 20 21 22 23
159
FTUS43 KMPX 161748
TAFRWF
TAF
KRWF 161748Z 1618/1718 11007KT 3SM -SHRA BR VCTS SCT006 OVC015CB
     FM162300 09007KT 1SM -TSRA BR SCT015 OVC025CB
      TEMPO 1623/1702 1/2SM TSRA BKN015CB
     FM170400 28010KT 4SM -SHRA BR OVC007
     FM170700 30015G23KT 3SM -SHRA BR OVC004
     FM171400 31016G25KT 6SM BR VCSH OVC008=

USA.gov is the U.S. government's official web portal to all federal, state and local government web resources and services.